Time;durP1;ratioP1;P1;durP2;ratioP2;P2;SDS_P1;SDS_P2;PMS_P1;PMS_P2;Temp;Humidity;BMP_temperature;BMP_pressure;BME280_temperature;BME280_humidity;BME280_pressure;Samples;Min_cycle;Max_cycle;Signal;HPM_P1;HPM_P2
2022/03/02 00:02:06;;;;;;;39.10;19.02;;;;;;;0.44;100.00;102717.91;4983490;28;20046;-79
2022/03/02 00:04:31;;;;;;;43.88;20.10;;;;;;;0.52;100.00;102728.06;4996329;28;20510;-77
2022/03/02 00:06:57;;;;;;;38.13;18.60;;;;;;;0.46;100.00;102723.03;5003257;28;20523;-78
2022/03/02 00:09:23;;;;;;;49.45;20.67;;;;;;;0.33;100.00;102712.97;4976168;28;20029;-79
2022/03/02 00:11:49;;;;;;;42.85;20.00;;;;;;;0.35;100.00;102731.00;4998471;28;20042;-76
2022/03/02 00:14:14;;;;;;;38.63;20.52;;;;;;;0.26;100.00;102724.28;4983472;28;20638;-77
2022/03/02 00:16:40;;;;;;;45.47;20.50;;;;;;;0.18;100.00;102734.78;4987883;28;20040;-77
2022/03/02 00:19:08;;;;;;;40.42;21.20;;;;;;;0.10;100.00;102739.25;4992260;28;20039;-77
2022/03/02 00:21:33;;;;;;;41.80;20.85;;;;;;;0.03;100.00;102731.66;4985897;28;20045;-79
2022/03/02 00:24:03;;;;;;;39.75;19.75;;;;;;;-0.04;100.00;102725.75;4988917;28;20034;-79
2022/03/02 00:26:30;;;;;;;40.45;19.77;;;;;;;0.05;100.00;102737.63;4988941;28;20029;-77
2022/03/02 00:28:56;;;;;;;39.45;20.40;;;;;;;0.02;100.00;102735.09;5000981;28;20030;-77
2022/03/02 00:31:22;;;;;;;35.85;19.48;;;;;;;0.02;100.00;102724.78;4990549;28;20037;-79
2022/03/02 00:33:48;;;;;;;43.15;22.10;;;;;;;-0.01;100.00;102726.53;4989652;28;20029;-78
2022/03/02 00:36:14;;;;;;;45.00;21.95;;;;;;;0.04;100.00;102741.94;4983639;28;20551;-77
2022/03/02 00:38:40;;;;;;;49.50;22.58;;;;;;;0.01;100.00;102733.41;5004318;28;20042;-78
2022/03/02 00:41:05;;;;;;;45.83;20.52;;;;;;;0.05;100.00;102740.22;4972293;28;20080;-79
2022/03/02 00:43:31;;;;;;;41.42;20.67;;;;;;;0.07;100.00;102735.88;4978269;28;20038;-76
2022/03/02 00:45:57;;;;;;;39.42;19.38;;;;;;;0.07;100.00;102738.44;4984222;28;20056;-77
2022/03/02 00:48:23;;;;;;;41.38;19.88;;;;;;;0.09;100.00;102741.84;4974888;28;20037;-79
2022/03/02 00:50:49;;;;;;;34.78;19.15;;;;;;;0.09;100.00;102736.69;4989194;28;20046;-79
2022/03/02 00:53:15;;;;;;;40.95;20.48;;;;;;;0.02;100.00;102712.75;5000585;28;20464;-78
2022/03/02 00:55:40;;;;;;;42.55;20.63;;;;;;;0.07;100.00;102716.06;4983830;28;20166;-77
2022/03/02 00:58:07;;;;;;;49.72;21.77;;;;;;;0.10;100.00;102721.19;4968239;28;20038;-77
2022/03/02 01:00:32;;;;;;;43.92;21.23;;;;;;;0.08;100.00;102719.53;5020858;28;20468;-77
2022/03/02 01:02:58;;;;;;;44.92;21.20;;;;;;;0.03;100.00;102716.19;4975220;28;20041;-79
2022/03/02 01:05:24;;;;;;;45.60;22.00;;;;;;;0.02;100.00;102714.47;4995288;28;20030;-77
2022/03/02 01:07:50;;;;;;;43.25;22.40;;;;;;;-0.12;100.00;102704.41;4995475;28;20037;-76
2022/03/02 01:10:17;;;;;;;42.50;21.38;;;;;;;-0.08;100.00;102718.94;4992189;28;20034;-77
2022/03/02 01:12:43;;;;;;;42.28;21.25;;;;;;;-0.04;100.00;102716.31;4994462;28;20450;-77
2022/03/02 01:15:10;;;;;;;40.42;21.35;;;;;;;-0.02;100.00;102708.50;5024803;28;20033;-77
2022/03/02 01:17:36;;;;;;;44.80;21.52;;;;;;;0.04;100.00;102717.84;4989020;28;20050;-78
2022/03/02 01:20:05;;;;;;;42.95;21.17;;;;;;;0.06;100.00;102716.97;5022586;28;20597;-80
2022/03/02 01:22:31;;;;;;;39.92;21.52;;;;;;;0.02;100.00;102715.34;5001699;28;20129;-77
2022/03/02 01:24:56;;;;;;;44.05;20.45;;;;;;;-0.05;100.00;102703.44;4989634;28;20466;-77
2022/03/02 01:27:23;;;;;;;48.50;22.25;;;;;;;-0.06;100.00;102704.28;4991720;28;20038;-78
2022/03/02 01:29:51;;;;;;;46.28;22.08;;;;;;;-0.13;100.00;102701.00;5002411;28;20069;-82
2022/03/02 01:32:17;;;;;;;45.13;21.50;;;;;;;-0.12;100.00;102700.09;4982632;28;20045;-78
2022/03/02 01:34:43;;;;;;;43.67;21.38;;;;;;;-0.09;100.00;102705.22;4970231;28;20075;-78
2022/03/02 01:37:09;;;;;;;43.17;20.77;;;;;;;-0.10;100.00;102706.06;5004173;28;20435;-77
2022/03/02 01:39:35;;;;;;;41.38;21.08;;;;;;;-0.02;100.00;102698.19;4985136;28;20051;-78
2022/03/02 01:42:00;;;;;;;40.95;21.35;;;;;;;-0.01;100.00;102689.59;4972724;28;20399;-78
2022/03/02 01:44:26;;;;;;;43.97;20.63;;;;;;;-0.04;100.00;102687.94;4973044;28;20470;-77
2022/03/02 01:46:52;;;;;;;47.55;20.35;;;;;;;-0.03;100.00;102687.03;5005612;28;20099;-79
2022/03/02 01:49:18;;;;;;;42.70;19.83;;;;;;;-0.01;100.00;102680.09;5010654;28;20629;-77
2022/03/02 01:51:44;;;;;;;41.58;20.23;;;;;;;0.06;100.00;102692.88;4974123;28;20037;-78
2022/03/02 01:54:09;;;;;;;40.70;19.77;;;;;;;-0.03;100.00;102673.28;5021643;28;20036;-78
2022/03/02 01:56:35;;;;;;;39.45;20.00;;;;;;;-0.07;100.00;102675.06;4977362;28;20426;-78
2022/03/02 01:59:04;;;;;;;40.85;20.17;;;;;;;-0.04;100.00;102676.72;4975057;28;20446;-78
2022/03/02 02:01:30;;;;;;;38.55;19.33;;;;;;;0.01;100.00;102674.06;4972397;28;20559;-78
2022/03/02 02:03:56;;;;;;;39.42;20.30;;;;;;;-0.06;100.00;102656.16;4990770;28;20038;-77
2022/03/02 02:06:22;;;;;;;37.03;18.70;;;;;;;-0.09;100.00;102656.19;4969579;28;20034;-79
2022/03/02 02:08:48;;;;;;;39.20;19.02;;;;;;;-0.06;100.00;102658.72;4985582;28;20053;-77
2022/03/02 02:11:14;;;;;;;41.63;20.40;;;;;;;-0.03;100.00;102645.75;4977262;28;20046;-80
2022/03/02 02:13:40;;;;;;;40.53;20.27;;;;;;;0.01;100.00;102656.84;4988041;28;20038;-78
2022/03/02 02:16:07;;;;;;;40.03;19.38;;;;;;;0.01;100.00;102648.28;5007480;28;20041;-77
2022/03/02 02:18:34;;;;;;;40.17;20.02;;;;;;;0.05;100.00;102665.38;5006516;28;20041;-78
2022/03/02 02:21:07;;;;;;;39.58;18.80;;;;;;;0.06;100.00;102667.06;5017373;28;20030;-78
2022/03/02 02:23:34;;;;;;;39.20;18.58;;;;;;;-0.01;100.00;102656.03;4992256;28;20046;-78
2022/03/02 02:26:00;;;;;;;37.63;19.30;;;;;;;-0.05;100.00;102654.41;4993983;28;20403;-77
2022/03/02 02:28:27;;;;;;;36.03;19.25;;;;;;;0.01;100.00;102661.19;4996119;28;20037;-79
2022/03/02 02:30:55;;;;;;;35.58;18.58;;;;;;;-0.09;100.00;102643.31;5028624;28;20052;-80
2022/03/02 02:33:22;;;;;;;36.25;17.98;;;;;;;-0.04;100.00;102651.81;4974136;28;20072;-78
2022/03/02 02:35:48;;;;;;;33.78;18.65;;;;;;;-0.06;100.00;102656.16;4975907;28;20164;-78
2022/03/02 02:38:15;;;;;;;38.17;18.80;;;;;;;-0.03;100.00;102660.38;4991242;28;20041;-78
2022/03/02 02:40:41;;;;;;;37.75;19.17;;;;;;;-0.05;100.00;102667.31;4993878;28;20061;-78
2022/03/02 02:43:10;;;;;;;36.72;19.33;;;;;;;-0.08;100.00;102668.19;5011006;28;20030;-79
2022/03/02 02:45:36;;;;;;;36.28;19.45;;;;;;;-0.10;100.00;102654.47;4997295;28;20156;-79
2022/03/02 02:48:02;;;;;;;32.33;16.70;;;;;;;-0.10;100.00;102651.06;4989282;28;20443;-77
2022/03/02 02:50:30;;;;;;;35.63;18.52;;;;;;;-0.08;100.00;102647.56;4999613;28;20271;-77
2022/03/02 02:52:59;;;;;;;32.53;17.90;;;;;;;-0.14;100.00;102644.28;4994737;28;20044;-79
2022/03/02 02:55:28;;;;;;;35.53;18.75;;;;;;;-0.10;100.00;102635.59;4987138;28;20106;-77
2022/03/02 02:57:55;;;;;;;36.42;19.38;;;;;;;-0.04;100.00;102645.78;5018210;28;20038;-80
2022/03/02 03:00:23;;;;;;;36.85;19.17;;;;;;;-0.09;100.00;102643.31;4996398;28;20411;-79
2022/03/02 03:02:50;;;;;;;38.70;18.67;;;;;;;-0.17;100.00;102631.41;5003517;28;20034;-81
2022/03/02 03:05:19;;;;;;;35.67;17.85;;;;;;;-0.11;100.00;102639.91;4992853;28;20060;-78
2022/03/02 03:07:46;;;;;;;36.63;18.08;;;;;;;-0.18;100.00;102622.84;5006310;28;20064;-78
2022/03/02 03:10:13;;;;;;;31.40;17.20;;;;;;;-0.16;100.00;102623.66;4968389;28;20045;-77
2022/03/02 03:12:40;;;;;;;37.85;18.85;;;;;;;-0.14;100.00;102629.63;4992993;28;20060;-78
2022/03/02 03:15:07;;;;;;;34.15;18.98;;;;;;;-0.15;100.00;102627.94;5006787;28;20395;-78
2022/03/02 03:17:33;;;;;;;35.63;18.45;;;;;;;-0.24;100.00;102610.09;4983166;28;20037;-77
2022/03/02 03:20:00;;;;;;;37.42;20.40;;;;;;;-0.22;100.00;102606.56;5019614;28;20042;-78
2022/03/02 03:22:26;;;;;;;37.20;19.63;;;;;;;-0.16;100.00;102612.50;4976014;28;20080;-77
2022/03/02 03:24:52;;;;;;;37.33;18.90;;;;;;;-0.18;100.00;102598.78;4992753;28;20434;-77
2022/03/02 03:27:18;;;;;;;38.22;20.30;;;;;;;-0.18;100.00;102603.94;4974047;28;20100;-79
2022/03/02 03:29:43;;;;;;;36.42;19.25;;;;;;;-0.23;100.00;102601.44;4966275;28;20034;-77
2022/03/02 03:32:09;;;;;;;36.70;19.23;;;;;;;-0.33;100.00;102605.94;4985116;28;20100;-79
2022/03/02 03:34:35;;;;;;;36.55;18.17;;;;;;;-0.45;100.00;102603.63;4982093;28;20026;-77
2022/03/02 03:37:01;;;;;;;37.15;19.58;;;;;;;-0.40;100.00;102609.50;4991121;28;20046;-78
2022/03/02 03:39:27;;;;;;;37.22;19.15;;;;;;;-0.56;100.00;102593.50;5006927;28;20034;-80
2022/03/02 03:41:55;;;;;;;36.83;18.23;;;;;;;-0.55;100.00;102600.34;4980550;28;20045;-77
2022/03/02 03:44:22;;;;;;;37.55;19.38;;;;;;;-0.57;100.00;102596.94;4974678;28;20137;-76
2022/03/02 03:46:48;;;;;;;41.42;19.88;;;;;;;-0.61;100.00;102598.72;4988586;28;20511;-78
2022/03/02 03:49:13;;;;;;;34.22;18.70;;;;;;;-0.60;100.00;102604.75;4993824;28;20584;-80
2022/03/02 03:51:39;;;;;;;40.60;19.55;;;;;;;-0.61;100.00;102613.34;5014810;28;20030;-79
2022/03/02 03:54:04;;;;;;;37.20;18.98;;;;;;;-0.65;100.00;102614.31;5002897;28;20720;-78
2022/03/02 03:56:31;;;;;;;37.17;19.05;;;;;;;-0.67;100.00;102614.31;4990832;28;20033;-78
2022/03/02 03:58:59;;;;;;;37.88;19.00;;;;;;;-0.69;100.00;102610.09;5011262;28;20116;-78
2022/03/02 04:01:25;;;;;;;32.45;18.23;;;;;;;-0.75;100.00;102602.44;5001025;28;20510;-81
2022/03/02 04:03:51;;;;;;;34.45;17.75;;;;;;;-0.81;100.00;102601.69;4992676;28;20069;-81
2022/03/02 04:06:16;;;;;;;36.13;18.70;;;;;;;-0.80;100.00;102602.53;4995443;28;20061;-79
2022/03/02 04:08:42;;;;;;;33.53;18.88;;;;;;;-0.87;100.00;102593.22;5009265;28;20046;-80
2022/03/02 04:11:08;;;;;;;37.53;18.25;;;;;;;-0.81;100.00;102600.81;5003148;28;20042;-83
2022/03/02 04:13:34;;;;;;;32.60;17.65;;;;;;;-0.83;100.00;102598.31;4979335;28;20026;-83
2022/03/02 04:15:59;;;;;;;42.22;20.27;;;;;;;-0.82;100.00;102594.00;5003743;28;20106;-80
2022/03/02 04:18:25;;;;;;;38.83;19.35;;;;;;;-0.83;100.00;102592.28;4991599;28;20316;-81
2022/03/02 04:20:52;;;;;;;38.22;19.38;;;;;;;-0.90;100.00;102576.09;5005107;28;20061;-78
2022/03/02 04:23:19;;;;;;;37.60;19.38;;;;;;;-0.85;100.00;102587.19;5004638;28;20121;-81
2022/03/02 04:25:45;;;;;;;36.03;19.40;;;;;;;-0.93;100.00;102575.28;4987313;28;20049;-81
2022/03/02 04:28:10;;;;;;;34.22;18.42;;;;;;;-0.86;100.00;102589.78;4981663;28;20042;-79
2022/03/02 04:30:36;;;;;;;39.88;20.35;;;;;;;-0.94;100.00;102571.00;4995005;28;20029;-79
2022/03/02 04:33:02;;;;;;;38.78;19.08;;;;;;;-0.90;100.00;102582.97;4990790;28;20026;-79
2022/03/02 04:35:28;;;;;;;37.53;19.13;;;;;;;-0.93;100.00;102575.28;5019001;28;20038;-78
2022/03/02 04:37:54;;;;;;;37.70;18.83;;;;;;;-0.98;100.00;102567.63;5008282;28;20033;-79
2022/03/02 04:40:20;;;;;;;37.47;19.60;;;;;;;-0.98;100.00;102567.63;4985792;28;20026;-78
2022/03/02 04:42:46;;;;;;;40.97;20.17;;;;;;;-0.94;100.00;102569.31;5007563;28;20114;-77
2022/03/02 04:45:12;;;;;;;34.45;19.17;;;;;;;-0.98;100.00;102555.63;4991926;28;20115;-78
2022/03/02 04:47:38;;;;;;;37.20;19.05;;;;;;;-1.00;100.00;102552.22;5023423;28;20057;-79
2022/03/02 04:50:05;;;;;;;37.83;19.08;;;;;;;-1.02;100.00;102566.88;5008399;28;20109;-77
2022/03/02 04:52:32;;;;;;;35.33;19.13;;;;;;;-1.01;100.00;102570.28;5000569;28;20034;-77
2022/03/02 04:55:07;;;;;;;38.53;19.70;;;;;;;-1.12;100.00;102560.16;4998944;28;20026;-77
2022/03/02 04:57:40;;;;;;;40.53;19.10;;;;;;;-1.14;100.00;102566.22;4977531;28;20634;-80
2022/03/02 05:00:18;;;;;;;38.35;18.15;;;;;;;-1.22;100.00;102559.47;4972294;28;20161;-79
2022/03/02 05:02:43;;;;;;;39.70;20.17;;;;;;;-1.28;100.00;102563.84;4985099;28;20057;-79
2022/03/02 05:05:12;;;;;;;40.88;19.55;;;;;;;-1.38;100.00;102568.31;4987742;28;20484;-78
2022/03/02 05:07:38;;;;;;;38.60;19.02;;;;;;;-1.43;100.00;102570.97;5003898;28;20495;-78
2022/03/02 05:10:05;;;;;;;34.50;17.38;;;;;;;-1.42;100.00;102575.22;4984283;28;20084;-78
2022/03/02 05:12:31;;;;;;;34.83;18.27;;;;;;;-1.48;100.00;102577.06;4983910;28;20030;-79
2022/03/02 05:14:57;;;;;;;38.00;20.20;;;;;;;-1.52;100.00;102562.56;4987017;28;20052;-78
2022/03/02 05:17:23;;;;;;;40.55;20.25;;;;;;;-1.57;100.00;102572.91;4969701;28;20073;-77
2022/03/02 05:19:49;;;;;;;43.00;20.77;;;;;;;-1.57;100.00;102572.91;4984132;28;20133;-78
2022/03/02 05:22:16;;;;;;;38.88;20.02;;;;;;;-1.59;100.00;102569.50;4984003;28;20037;-78
2022/03/02 05:24:42;;;;;;;39.17;19.67;;;;;;;-1.65;100.00;102561.88;5017529;28;20036;-78
2022/03/02 05:27:08;;;;;;;31.65;18.77;;;;;;;-1.67;100.00;102561.06;5008784;28;20069;-77
2022/03/02 05:29:37;;;;;;;41.28;20.63;;;;;;;-1.71;100.00;102560.25;4988325;28;20108;-78
2022/03/02 05:32:04;;;;;;;38.78;20.95;;;;;;;-1.70;100.00;102567.09;4983775;28;20097;-78
2022/03/02 05:34:30;;;;;;;37.53;19.48;;;;;;;-1.75;100.00;102563.75;5004111;28;20037;-77
2022/03/02 05:36:55;;;;;;;36.55;18.73;;;;;;;-1.83;100.00;102550.13;4998254;28;20041;-81
2022/03/02 05:39:23;;;;;;;39.15;19.77;;;;;;;-1.74;100.00;102554.31;4976868;28;20030;-79
2022/03/02 05:41:49;;;;;;;44.92;20.38;;;;;;;-1.70;100.00;102540.50;5009893;28;20050;-78
2022/03/02 05:44:15;;;;;;;42.80;21.50;;;;;;;-1.55;100.00;102542.00;4997989;28;20038;-77
2022/03/02 05:46:41;;;;;;;40.65;21.33;;;;;;;-1.53;100.00;102537.69;4999276;28;20030;-78
2022/03/02 05:49:10;;;;;;;36.72;19.30;;;;;;;-1.53;100.00;102541.09;4989473;28;20042;-81
2022/03/02 05:51:37;;;;;;;39.72;20.65;;;;;;;-1.52;100.00;102545.38;4992398;28;20431;-82
2022/03/02 05:54:04;;;;;;;40.95;21.17;;;;;;;-1.54;100.00;102544.56;4963509;28;20034;-81
2022/03/02 05:56:31;;;;;;;39.67;20.50;;;;;;;-1.59;100.00;102543.78;4990948;28;20034;-82
2022/03/02 05:58:58;;;;;;;45.50;21.15;;;;;;;-1.70;100.00;102553.38;5013060;28;20029;-80
2022/03/02 06:01:23;;;;;;;39.15;21.52;;;;;;;-1.74;100.00;102570.59;4984377;28;20041;-78
2022/03/02 06:03:49;;;;;;;44.30;21.08;;;;;;;-1.88;100.00;102565.66;5018375;28;20049;-79
2022/03/02 06:06:16;;;;;;;41.05;21.50;;;;;;;-1.96;100.00;102570.91;5017847;28;20050;-80
2022/03/02 06:08:42;;;;;;;39.70;20.90;;;;;;;-2.07;100.00;102577.91;4973678;28;20444;-79
2022/03/02 06:11:08;;;;;;;49.63;22.88;;;;;;;-2.17;100.00;102577.19;4980146;28;20065;-78
2022/03/02 06:13:34;;;;;;;41.63;20.55;;;;;;;-2.16;100.00;102586.59;5003999;28;20033;-79
2022/03/02 06:16:01;;;;;;;40.20;20.45;;;;;;;-2.11;100.00;102589.09;4978174;28;20045;-79
2022/03/02 06:18:27;;;;;;;38.45;20.20;;;;;;;-2.10;100.00;102583.09;4995986;28;20040;-77
2022/03/02 06:20:59;;;;;;;41.08;20.55;;;;;;;-2.05;100.00;102581.31;5006253;28;20042;-79
2022/03/02 06:23:25;;;;;;;49.65;21.70;;;;;;;-2.03;100.00;102579.56;4992956;28;20046;-78
2022/03/02 06:25:51;;;;;;;45.95;21.58;;;;;;;-2.01;100.00;102580.38;4988274;28;20042;-79
2022/03/02 06:28:17;;;;;;;43.28;22.52;;;;;;;-1.97;100.00;102594.06;4992664;28;20060;-80
2022/03/02 06:30:43;;;;;;;56.20;22.63;;;;;;;-1.96;100.00;102585.47;4990081;28;20044;-81
2022/03/02 06:33:13;;;;;;;40.40;21.15;;;;;;;-1.91;100.00;102586.25;4979394;28;20837;-78
2022/03/02 06:35:38;;;;;;;37.90;21.25;;;;;;;-1.81;100.00;102585.28;5002406;28;20040;-77
2022/03/02 06:38:04;;;;;;;45.78;21.70;;;;;;;-1.81;100.00;102572.41;4984709;28;20030;-77
2022/03/02 06:40:30;;;;;;;43.88;22.70;;;;;;;-1.73;100.00;102564.56;4989608;28;20179;-78
2022/03/02 06:43:02;;;;;;;44.03;21.75;;;;;;;-1.70;100.00;102576.53;5002657;28;20041;-78
2022/03/02 06:45:58;;;;;;;44.03;21.58;;;;;;;-1.67;100.00;102582.50;4983571;28;20049;-77
2022/03/02 06:48:29;;;;;;;39.67;21.48;;;;;;;-1.63;100.00;102583.31;4991293;28;20505;-78
2022/03/02 06:50:58;;;;;;;50.40;22.20;;;;;;;-1.66;100.00;102584.19;4994282;28;20065;-79
2022/03/02 06:53:32;;;;;;;47.72;21.38;;;;;;;-1.62;100.00;102591.00;4992698;28;20033;-78
2022/03/02 06:56:00;;;;;;;49.05;23.98;;;;;;;-1.72;100.00;102578.28;4993827;28;20696;-78
2022/03/02 06:58:28;;;;;;;47.03;23.98;;;;;;;-1.68;100.00;102605.66;4975199;28;20030;-78
2022/03/02 07:00:56;;;;;;;43.65;21.33;;;;;;;-1.62;100.00;102606.44;4984506;28;20038;-78
2022/03/02 07:03:27;;;;;;;38.70;20.08;;;;;;;-1.52;100.00;102601.16;4998129;28;20045;-80
2022/03/02 07:05:55;;;;;;;43.30;20.75;;;;;;;-1.45;100.00;102602.75;5008786;28;20038;-77
2022/03/02 07:08:24;;;;;;;43.53;21.13;;;;;;;-1.31;100.00;102602.56;5009864;28;20479;-80
2022/03/02 07:10:51;;;;;;;36.72;20.02;;;;;;;-1.28;100.00;102600.78;4998043;28;20124;-80
2022/03/02 07:13:17;;;;;;;40.88;20.67;;;;;;;-1.19;100.00;102604.91;4989027;28;20519;-77
2022/03/02 07:15:43;;;;;;;43.20;21.20;;;;;;;-1.11;100.00;102608.22;4984599;28;20041;-77
2022/03/02 07:18:09;;;;;;;40.63;19.70;;;;;;;-1.03;100.00;102597.78;5014326;28;20050;-78
2022/03/02 07:20:41;;;;;;;44.35;19.67;;;;;;;-0.81;100.00;102600.81;4995817;28;20080;-80
2022/03/02 07:23:15;;;;;;;38.13;19.88;;;;;;;-0.58;100.00;102603.00;5012192;28;20034;-79
2022/03/02 07:25:42;;;;;;;42.17;19.13;;;;;;;-0.39;100.00;102606.06;5005657;28;20525;-76
2022/03/02 07:28:13;;;;;;;36.60;18.98;;;;;;;-0.28;100.00;102605.88;4993791;28;20034;-77
2022/03/02 07:30:39;;;;;;;40.70;19.02;;;;;;;-0.07;100.00;102617.47;5003110;28;20042;-80
2022/03/02 07:33:06;;;;;;;37.58;18.83;;;;;;;0.03;100.00;102615.53;5009735;28;20107;-80
2022/03/02 07:35:37;;;;;;;44.97;20.02;;;;;;;0.08;100.00;102596.50;4985411;28;20034;-81
2022/03/02 07:38:08;;;;;;;36.63;19.45;;;;;;;0.31;100.00;102608.88;5000966;28;20045;-79
2022/03/02 07:40:34;;;;;;;40.28;18.42;;;;;;;0.40;100.00;102607.84;4985804;28;20030;-79
2022/03/02 07:43:00;;;;;;;43.08;19.75;;;;;;;0.52;100.00;102606.72;5005919;28;20471;-80
2022/03/02 07:45:26;;;;;;;40.47;19.27;;;;;;;0.73;100.00;102605.34;4988528;28;20034;-79
2022/03/02 07:47:52;;;;;;;40.65;18.27;;;;;;;0.73;99.27;102603.59;5000642;28;20046;-78
2022/03/02 07:50:18;;;;;;;43.60;18.73;;;;;;;0.80;98.02;102604.31;5023040;28;20025;-77
2022/03/02 07:52:53;;;;;;;41.33;18.40;;;;;;;1.03;94.94;102606.31;4985338;28;20045;-77
2022/03/02 07:55:20;;;;;;;38.17;17.65;;;;;;;0.88;92.91;102597.22;4995681;28;20510;-77
2022/03/02 07:57:52;;;;;;;36.63;18.33;;;;;;;0.92;93.04;102597.97;5003015;28;20034;-77
2022/03/02 08:00:17;;;;;;;43.65;17.60;;;;;;;1.04;92.92;102604.59;5001260;28;20128;-79
2022/03/02 08:02:51;;;;;;;37.03;17.77;;;;;;;1.09;92.89;102592.38;5005259;28;20176;-79
2022/03/02 08:05:21;;;;;;;39.42;17.85;;;;;;;1.27;92.76;102591.06;5004518;28;20569;-76
2022/03/02 08:07:48;;;;;;;30.17;16.50;;;;;;;1.31;90.80;102597.84;5004540;28;20136;-77
2022/03/02 08:10:15;;;;;;;35.00;17.13;;;;;;;1.42;90.32;102585.47;4993285;28;20045;-78
2022/03/02 08:12:42;;;;;;;34.72;17.42;;;;;;;1.55;88.70;102596.34;5012318;28;20041;-78
2022/03/02 08:15:08;;;;;;;33.60;15.95;;;;;;;1.50;87.71;102596.44;5006809;28;20045;-77
2022/03/02 08:17:34;;;;;;;34.83;17.00;;;;;;;1.48;88.63;102606.00;5000868;28;20034;-77
2022/03/02 08:20:00;;;;;;;33.63;18.02;;;;;;;1.56;89.54;102605.78;5001996;28;20072;-78
2022/03/02 08:22:29;;;;;;;36.08;17.95;;;;;;;1.50;89.62;102586.09;4995837;28;20046;-77
2022/03/02 08:25:13;;;;;;;36.67;17.48;;;;;;;1.69;88.52;102608.88;4988951;28;20077;-79
2022/03/02 08:27:40;;;;;;;36.40;16.35;;;;;;;1.71;88.79;102610.53;4986019;28;20624;-78
2022/03/02 08:30:08;;;;;;;37.65;17.42;;;;;;;1.85;88.51;102625.66;4984689;28;20483;-77
2022/03/02 08:32:39;;;;;;;28.60;15.52;;;;;;;2.00;83.61;102615.75;5003464;28;20061;-78
2022/03/02 08:35:06;;;;;;;33.45;15.75;;;;;;;2.06;85.24;102615.59;4977349;28;20121;-80
2022/03/02 08:37:34;;;;;;;34.55;16.13;;;;;;;2.14;84.24;102624.81;5001135;28;20117;-77
2022/03/02 08:40:00;;;;;;;31.23;17.30;;;;;;;2.24;85.52;102619.34;4976986;28;20034;-78
2022/03/02 08:42:26;;;;;;;31.30;15.20;;;;;;;2.36;84.43;102612.97;4981850;28;20034;-79
2022/03/02 08:44:54;;;;;;;39.92;17.45;;;;;;;2.61;84.29;102613.88;4983697;28;20120;-78
2022/03/02 08:47:23;;;;;;;32.97;17.48;;;;;;;2.60;83.60;102619.09;4987750;28;20038;-77
2022/03/02 08:49:50;;;;;;;33.40;16.77;;;;;;;2.61;83.18;102624.22;5000397;28;20736;-78
2022/03/02 08:52:20;;;;;;;24.08;11.70;;;;;;;2.90;75.58;102612.06;4990155;28;20033;-79
2022/03/02 08:54:47;;;;;;;25.80;12.70;;;;;;;3.17;76.08;102610.31;5002711;28;20037;-77
2022/03/02 08:57:18;;;;;;;32.10;13.68;;;;;;;3.11;73.54;102607.94;4985670;28;20042;-78
2022/03/02 08:59:44;;;;;;;27.23;13.98;;;;;;;3.19;75.12;102615.44;5004131;28;20042;-81
2022/03/02 09:02:10;;;;;;;29.38;14.00;;;;;;;3.34;75.10;102609.72;4989646;28;20487;-79
2022/03/02 09:04:38;;;;;;;25.25;13.90;;;;;;;3.53;73.13;102606.47;4989876;28;20034;-76
2022/03/02 09:07:05;;;;;;;27.83;13.75;;;;;;;3.45;74.10;102612.78;5007648;28;20049;-76
2022/03/02 09:09:31;;;;;;;27.52;13.70;;;;;;;3.48;73.26;102617.88;5008963;28;20034;-75
2022/03/02 09:11:58;;;;;;;21.48;11.60;;;;;;;3.28;70.91;102628.09;4975183;28;20472;-79
2022/03/02 09:14:24;;;;;;;24.60;12.93;;;;;;;3.48;71.02;102625.66;5014828;28;20029;-78
2022/03/02 09:16:50;;;;;;;25.00;13.38;;;;;;;3.60;71.27;102632.16;4991541;28;20037;-80
2022/03/02 09:19:17;;;;;;;23.15;13.05;;;;;;;3.64;70.79;102630.28;4987644;28;20494;-80
2022/03/02 09:21:44;;;;;;;26.23;12.52;;;;;;;3.66;71.43;102620.69;4981411;28;20038;-79
2022/03/02 09:24:11;;;;;;;27.30;13.35;;;;;;;3.88;70.54;102623.34;4975080;28;20034;-76
2022/03/02 09:26:38;;;;;;;30.90;13.68;;;;;;;3.93;69.81;102623.19;4993324;28;20045;-78
2022/03/02 09:29:06;;;;;;;23.23;13.32;;;;;;;3.87;70.07;102622.50;4994029;28;20096;-80
2022/03/02 09:31:34;;;;;;;22.70;12.68;;;;;;;4.16;68.79;102625.75;4985449;28;20038;-77
2022/03/02 09:34:08;;;;;;;23.25;12.45;;;;;;;4.33;70.49;102616.47;4965076;28;20084;-81
2022/03/02 09:36:36;;;;;;;25.75;13.18;;;;;;;4.47;68.41;102616.78;4987355;28;20042;-78
2022/03/02 09:39:05;;;;;;;21.38;11.88;;;;;;;4.59;67.95;102611.06;4985105;28;20038;-77
2022/03/02 09:41:48;;;;;;;22.45;12.00;;;;;;;4.59;65.83;102618.88;4971001;28;20662;-77
2022/03/02 09:44:18;;;;;;;24.48;12.65;;;;;;;4.18;67.79;102612.69;4992344;28;20191;-82
2022/03/02 09:46:48;;;;;;;25.23;11.55;;;;;;;4.18;67.58;102604.91;4992287;28;20125;-78
2022/03/02 09:49:20;;;;;;;19.67;11.25;;;;;;;4.40;66.72;102603.16;4977079;28;20042;-79
2022/03/02 09:51:51;;;;;;;18.85;11.60;;;;;;;4.58;66.60;102603.34;4979648;28;20026;-80
2022/03/02 09:54:21;;;;;;;21.05;12.02;;;;;;;4.76;65.51;102599.97;4975757;28;20471;-79
2022/03/02 09:56:51;;;;;;;20.13;11.05;;;;;;;4.73;64.96;102594.06;4988856;28;20136;-78
2022/03/02 09:59:18;;;;;;;24.58;12.45;;;;;;;4.96;65.82;102606.97;4980970;28;20091;-78
2022/03/02 10:01:52;;;;;;;20.52;11.23;;;;;;;4.88;64.41;102598.66;4998184;28;20045;-77
2022/03/02 10:04:22;;;;;;;18.45;11.15;;;;;;;4.95;65.67;102596.63;5000604;28;20030;-78
2022/03/02 10:06:50;;;;;;;18.55;10.38;;;;;;;5.19;63.26;102590.38;4988621;28;20030;-79
2022/03/02 10:09:23;;;;;;;19.83;11.50;;;;;;;5.24;62.52;102585.81;4991429;28;20789;-77
2022/03/02 10:11:49;;;;;;;19.90;10.85;;;;;;;5.43;58.89;102582.44;4984264;28;20049;-77
2022/03/02 10:14:18;;;;;;;17.10;10.32;;;;;;;5.29;58.86;102570.00;4972577;28;20057;-77
2022/03/02 10:16:45;;;;;;;22.77;10.98;;;;;;;5.54;60.53;102568.91;4986519;28;20479;-78
2022/03/02 10:19:25;;;;;;;19.15;10.20;;;;;;;5.74;61.32;102571.44;4982702;28;20034;-80
2022/03/02 10:22:06;;;;;;;21.55;10.50;;;;;;;5.81;59.32;102566.81;4985426;28;20113;-77
2022/03/02 10:24:39;;;;;;;17.23;9.73;;;;;;;5.72;58.97;102569.84;5000015;28;20054;-77
2022/03/02 10:27:06;;;;;;;17.45;10.07;;;;;;;5.72;57.94;102582.88;4979877;28;20097;-77
2022/03/02 10:29:43;;;;;;;22.85;10.70;;;;;;;5.72;58.86;102577.66;5002115;28;20041;-77
2022/03/02 10:32:16;;;;;;;17.58;10.98;;;;;;;5.83;57.55;102581.44;4980522;28;20034;-76
2022/03/02 10:34:54;;;;;;;;;;;;;;;5.81;58.60;102575.47;5014452;28;20034;-77
2022/03/02 10:37:20;;;;;;;17.73;10.55;;;;;;;5.97;59.51;102574.78;4990240;28;19923;-78
2022/03/02 10:40:09;;;;;;;19.65;11.00;;;;;;;6.08;59.01;102569.91;5018665;28;20121;-79
2022/03/02 10:42:57;;;;;;;17.05;9.98;;;;;;;6.22;58.08;102572.72;4993686;28;20487;-79
2022/03/02 10:45:27;;;;;;;15.48;10.48;;;;;;;6.30;57.01;102571.53;4992759;28;20376;-77
2022/03/02 10:48:21;;;;;;;16.65;9.63;;;;;;;6.14;56.24;102567.03;4978795;28;20095;-79
2022/03/02 10:50:51;;;;;;;17.77;10.82;;;;;;;5.87;56.47;102568.31;4999437;28;20049;-76
2022/03/02 10:53:19;;;;;;;19.48;10.82;;;;;;;5.91;57.97;102575.88;4989937;28;20087;-77
2022/03/02 10:55:48;;;;;;;17.42;10.32;;;;;;;6.09;56.40;102563.81;5010573;28;20397;-79
2022/03/02 10:58:17;;;;;;;18.35;10.40;;;;;;;6.24;55.89;102570.88;4978021;28;20062;-79
2022/03/02 11:00:44;;;;;;;16.83;10.18;;;;;;;6.38;56.51;102567.59;5006707;28;20053;-80
2022/03/02 11:03:12;;;;;;;19.75;9.68;;;;;;;6.45;54.77;102567.34;5005133;28;20480;-79
2022/03/02 11:05:39;;;;;;;20.08;10.70;;;;;;;6.35;54.88;102561.72;4994927;28;20049;-80
2022/03/02 11:08:05;;;;;;;16.60;10.13;;;;;;;6.50;55.07;102567.91;4979411;28;20038;-80
2022/03/02 11:10:37;;;;;;;18.42;10.43;;;;;;;6.64;54.28;102562.88;4990586;28;20038;-78